sensor_id;sensor_type;location;lat;lon;timestamp;P1;durP1;ratioP1;P2;durP2;ratioP2
7076;SDS011;3579;48.956;9.154;2022-07-15T00:02:23;2.77;;;1.80;;
7076;SDS011;3579;48.956;9.154;2022-07-15T00:04:49;1.90;;;1.50;;
7076;SDS011;3579;48.956;9.154;2022-07-15T00:07:15;1.57;;;1.47;;
7076;SDS011;3579;48.956;9.154;2022-07-15T00:09:42;2.03;;;1.70;;
7076;SDS011;3579;48.956;9.154;2022-07-15T00:12:26;1.63;;;1.53;;
7076;SDS011;3579;48.956;9.154;2022-07-15T00:14:52;4.53;;;2.40;;
7076;SDS011;3579;48.956;9.154;2022-07-15T00:17:18;1.57;;;1.40;;
7076;SDS011;3579;48.956;9.154;2022-07-15T00:19:44;1.77;;;1.67;;
7076;SDS011;3579;48.956;9.154;2022-07-15T00:22:10;1.70;;;1.60;;
7076;SDS011;3579;48.956;9.154;2022-07-15T00:24:37;1.40;;;1.30;;
7076;SDS011;3579;48.956;9.154;2022-07-15T00:27:03;1.93;;;1.63;;
7076;SDS011;3579;48.956;9.154;2022-07-15T00:29:30;1.50;;;1.40;;
7076;SDS011;3579;48.956;9.154;2022-07-15T00:31:56;1.80;;;1.70;;
7076;SDS011;3579;48.956;9.154;2022-07-15T00:34:23;1.60;;;1.50;;
7076;SDS011;3579;48.956;9.154;2022-07-15T00:36:49;1.50;;;1.40;;
7076;SDS011;3579;48.956;9.154;2022-07-15T00:39:15;1.87;;;1.70;;
7076;SDS011;3579;48.956;9.154;2022-07-15T00:41:42;1.50;;;1.40;;
7076;SDS011;3579;48.956;9.154;2022-07-15T00:44:09;2.03;;;1.50;;
7076;SDS011;3579;48.956;9.154;2022-07-15T00:46:35;1.77;;;1.60;;
7076;SDS011;3579;48.956;9.154;2022-07-15T00:49:02;1.90;;;1.67;;
7076;SDS011;3579;48.956;9.154;2022-07-15T00:51:35;1.83;;;1.63;;
7076;SDS011;3579;48.956;9.154;2022-07-15T00:54:06;1.50;;;1.40;;
7076;SDS011;3579;48.956;9.154;2022-07-15T00:56:36;1.50;;;1.40;;
7076;SDS011;3579;48.956;9.154;2022-07-15T00:59:21;1.83;;;1.63;;
7076;SDS011;3579;48.956;9.154;2022-07-15T01:01:49;1.83;;;1.33;;
7076;SDS011;3579;48.956;9.154;2022-07-15T01:04:18;1.47;;;1.37;;
7076;SDS011;3579;48.956;9.154;2022-07-15T01:06:45;2.33;;;1.50;;
7076;SDS011;3579;48.956;9.154;2022-07-15T01:09:11;1.40;;;1.30;;
7076;SDS011;3579;48.956;9.154;2022-07-15T01:11:38;1.67;;;1.57;;
7076;SDS011;3579;48.956;9.154;2022-07-15T01:14:04;1.53;;;1.40;;
7076;SDS011;3579;48.956;9.154;2022-07-15T01:16:30;1.50;;;1.37;;
7076;SDS011;3579;48.956;9.154;2022-07-15T01:18:56;1.80;;;1.70;;
7076;SDS011;3579;48.956;9.154;2022-07-15T01:21:23;1.60;;;1.50;;
7076;SDS011;3579;48.956;9.154;2022-07-15T01:23:49;1.50;;;1.40;;
7076;SDS011;3579;48.956;9.154;2022-07-15T01:26:15;1.50;;;1.40;;
7076;SDS011;3579;48.956;9.154;2022-07-15T01:28:41;1.97;;;1.77;;
7076;SDS011;3579;48.956;9.154;2022-07-15T01:31:08;1.47;;;1.37;;
7076;SDS011;3579;48.956;9.154;2022-07-15T01:33:34;1.77;;;1.60;;
7076;SDS011;3579;48.956;9.154;2022-07-15T01:36:01;1.70;;;1.60;;
7076;SDS011;3579;48.956;9.154;2022-07-15T01:38:27;1.80;;;1.47;;
7076;SDS011;3579;48.956;9.154;2022-07-15T01:40:54;1.80;;;1.50;;
7076;SDS011;3579;48.956;9.154;2022-07-15T01:43:21;2.00;;;1.60;;
7076;SDS011;3579;48.956;9.154;2022-07-15T01:45:47;2.03;;;1.30;;
7076;SDS011;3579;48.956;9.154;2022-07-15T01:48:13;1.70;;;1.60;;
7076;SDS011;3579;48.956;9.154;2022-07-15T01:50:59;1.60;;;1.50;;
7076;SDS011;3579;48.956;9.154;2022-07-15T01:53:26;1.60;;;1.50;;
7076;SDS011;3579;48.956;9.154;2022-07-15T01:55:53;1.83;;;1.50;;
7076;SDS011;3579;48.956;9.154;2022-07-15T01:58:19;1.50;;;1.40;;
7076;SDS011;3579;48.956;9.154;2022-07-15T02:00:46;1.60;;;1.50;;
7076;SDS011;3579;48.956;9.154;2022-07-15T02:03:14;1.63;;;1.53;;
7076;SDS011;3579;48.956;9.154;2022-07-15T02:05:40;1.60;;;1.40;;
7076;SDS011;3579;48.956;9.154;2022-07-15T02:08:06;1.50;;;1.40;;
7076;SDS011;3579;48.956;9.154;2022-07-15T02:10:32;1.70;;;1.60;;
7076;SDS011;3579;48.956;9.154;2022-07-15T02:13:08;2.00;;;1.63;;
7076;SDS011;3579;48.956;9.154;2022-07-15T02:15:36;1.70;;;1.57;;
7076;SDS011;3579;48.956;9.154;2022-07-15T02:18:02;1.53;;;1.37;;
7076;SDS011;3579;48.956;9.154;2022-07-15T02:20:29;1.60;;;1.50;;
7076;SDS011;3579;48.956;9.154;2022-07-15T02:22:55;1.37;;;1.27;;
7076;SDS011;3579;48.956;9.154;2022-07-15T02:25:27;1.60;;;1.50;;
7076;SDS011;3579;48.956;9.154;2022-07-15T02:28:04;1.40;;;1.30;;
7076;SDS011;3579;48.956;9.154;2022-07-15T02:30:32;1.50;;;1.40;;
7076;SDS011;3579;48.956;9.154;2022-07-15T02:33:00;1.43;;;1.33;;
7076;SDS011;3579;48.956;9.154;2022-07-15T02:35:27;2.27;;;1.50;;
7076;SDS011;3579;48.956;9.154;2022-07-15T02:37:53;1.80;;;1.60;;
7076;SDS011;3579;48.956;9.154;2022-07-15T02:40:19;1.80;;;1.60;;
7076;SDS011;3579;48.956;9.154;2022-07-15T02:42:47;1.60;;;1.50;;
7076;SDS011;3579;48.956;9.154;2022-07-15T02:45:14;1.60;;;1.50;;
7076;SDS011;3579;48.956;9.154;2022-07-15T02:47:40;1.77;;;1.60;;
7076;SDS011;3579;48.956;9.154;2022-07-15T02:50:06;1.50;;;1.40;;
7076;SDS011;3579;48.956;9.154;2022-07-15T02:52:32;1.43;;;1.33;;
7076;SDS011;3579;48.956;9.154;2022-07-15T02:54:59;1.67;;;1.53;;
7076;SDS011;3579;48.956;9.154;2022-07-15T02:57:26;1.73;;;1.60;;
7076;SDS011;3579;48.956;9.154;2022-07-15T02:59:53;1.60;;;1.50;;
7076;SDS011;3579;48.956;9.154;2022-07-15T03:02:19;1.70;;;1.60;;
7076;SDS011;3579;48.956;9.154;2022-07-15T03:04:45;1.70;;;1.40;;
7076;SDS011;3579;48.956;9.154;2022-07-15T03:07:12;1.50;;;1.40;;
7076;SDS011;3579;48.956;9.154;2022-07-15T03:09:38;1.70;;;1.60;;
7076;SDS011;3579;48.956;9.154;2022-07-15T03:12:05;1.40;;;1.30;;
7076;SDS011;3579;48.956;9.154;2022-07-15T03:14:31;1.93;;;1.50;;
7076;SDS011;3579;48.956;9.154;2022-07-15T03:16:57;2.43;;;1.60;;
7076;SDS011;3579;48.956;9.154;2022-07-15T03:19:23;1.57;;;1.40;;
7076;SDS011;3579;48.956;9.154;2022-07-15T03:21:49;1.60;;;1.50;;
7076;SDS011;3579;48.956;9.154;2022-07-15T03:24:15;1.70;;;1.60;;
7076;SDS011;3579;48.956;9.154;2022-07-15T03:26:42;1.60;;;1.50;;
7076;SDS011;3579;48.956;9.154;2022-07-15T03:29:08;1.67;;;1.57;;
7076;SDS011;3579;48.956;9.154;2022-07-15T03:31:35;1.50;;;1.40;;
7076;SDS011;3579;48.956;9.154;2022-07-15T03:34:01;1.60;;;1.50;;
7076;SDS011;3579;48.956;9.154;2022-07-15T03:36:27;1.50;;;1.40;;
7076;SDS011;3579;48.956;9.154;2022-07-15T03:38:53;2.03;;;1.60;;
7076;SDS011;3579;48.956;9.154;2022-07-15T03:41:19;1.77;;;1.40;;
7076;SDS011;3579;48.956;9.154;2022-07-15T03:43:46;1.60;;;1.50;;
7076;SDS011;3579;48.956;9.154;2022-07-15T03:46:12;1.60;;;1.50;;
7076;SDS011;3579;48.956;9.154;2022-07-15T03:48:41;1.47;;;1.37;;
7076;SDS011;3579;48.956;9.154;2022-07-15T03:51:07;1.50;;;1.40;;
7076;SDS011;3579;48.956;9.154;2022-07-15T03:53:33;1.43;;;1.33;;
7076;SDS011;3579;48.956;9.154;2022-07-15T03:55:59;1.60;;;1.50;;
7076;SDS011;3579;48.956;9.154;2022-07-15T03:58:25;1.40;;;1.30;;
7076;SDS011;3579;48.956;9.154;2022-07-15T04:00:51;1.43;;;1.27;;
7076;SDS011;3579;48.956;9.154;2022-07-15T04:03:17;1.50;;;1.40;;
7076;SDS011;3579;48.956;9.154;2022-07-15T04:05:43;1.63;;;1.40;;
7076;SDS011;3579;48.956;9.154;2022-07-15T04:08:09;1.70;;;1.40;;
7076;SDS011;3579;48.956;9.154;2022-07-15T04:10:35;1.30;;;1.20;;
7076;SDS011;3579;48.956;9.154;2022-07-15T04:13:02;1.60;;;1.43;;
7076;SDS011;3579;48.956;9.154;2022-07-15T04:15:28;1.53;;;1.43;;
7076;SDS011;3579;48.956;9.154;2022-07-15T04:17:54;1.53;;;1.30;;
7076;SDS011;3579;48.956;9.154;2022-07-15T04:20:20;1.40;;;1.30;;
7076;SDS011;3579;48.956;9.154;2022-07-15T04:22:46;1.47;;;1.37;;
7076;SDS011;3579;48.956;9.154;2022-07-15T04:25:14;1.70;;;1.60;;
7076;SDS011;3579;48.956;9.154;2022-07-15T04:27:42;1.67;;;1.57;;
7076;SDS011;3579;48.956;9.154;2022-07-15T04:30:08;1.70;;;1.60;;
7076;SDS011;3579;48.956;9.154;2022-07-15T04:32:35;1.60;;;1.40;;
7076;SDS011;3579;48.956;9.154;2022-07-15T04:35:01;1.40;;;1.30;;
7076;SDS011;3579;48.956;9.154;2022-07-15T04:37:28;1.50;;;1.40;;
7076;SDS011;3579;48.956;9.154;2022-07-15T04:39:54;1.57;;;1.47;;
7076;SDS011;3579;48.956;9.154;2022-07-15T04:42:21;2.20;;;1.90;;
7076;SDS011;3579;48.956;9.154;2022-07-15T04:44:47;3.03;;;1.90;;
7076;SDS011;3579;48.956;9.154;2022-07-15T04:47:14;1.93;;;1.70;;
7076;SDS011;3579;48.956;9.154;2022-07-15T04:49:40;3.37;;;1.83;;
7076;SDS011;3579;48.956;9.154;2022-07-15T04:52:25;3.37;;;1.90;;
7076;SDS011;3579;48.956;9.154;2022-07-15T04:54:51;2.10;;;1.90;;
7076;SDS011;3579;48.956;9.154;2022-07-15T04:57:18;3.17;;;2.37;;
7076;SDS011;3579;48.956;9.154;2022-07-15T04:59:44;2.63;;;1.80;;
7076;SDS011;3579;48.956;9.154;2022-07-15T05:02:10;4.50;;;1.80;;
7076;SDS011;3579;48.956;9.154;2022-07-15T05:04:36;2.30;;;1.93;;
7076;SDS011;3579;48.956;9.154;2022-07-15T05:07:02;3.10;;;2.00;;
7076;SDS011;3579;48.956;9.154;2022-07-15T05:09:29;2.93;;;2.10;;
7076;SDS011;3579;48.956;9.154;2022-07-15T05:11:55;3.63;;;2.13;;
7076;SDS011;3579;48.956;9.154;2022-07-15T05:14:21;3.13;;;2.23;;
7076;SDS011;3579;48.956;9.154;2022-07-15T05:16:46;3.80;;;2.13;;
7076;SDS011;3579;48.956;9.154;2022-07-15T05:19:12;3.97;;;2.57;;
7076;SDS011;3579;48.956;9.154;2022-07-15T05:21:38;4.03;;;2.10;;
7076;SDS011;3579;48.956;9.154;2022-07-15T05:24:04;4.47;;;2.60;;
7076;SDS011;3579;48.956;9.154;2022-07-15T05:26:30;6.07;;;2.90;;
7076;SDS011;3579;48.956;9.154;2022-07-15T05:28:57;10.63;;;3.33;;
7076;SDS011;3579;48.956;9.154;2022-07-15T05:31:22;18.27;;;3.53;;
7076;SDS011;3579;48.956;9.154;2022-07-15T05:33:48;9.07;;;3.23;;
7076;SDS011;3579;48.956;9.154;2022-07-15T05:36:15;8.33;;;3.10;;
7076;SDS011;3579;48.956;9.154;2022-07-15T05:38:41;6.60;;;2.80;;
7076;SDS011;3579;48.956;9.154;2022-07-15T05:41:07;6.70;;;2.90;;
7076;SDS011;3579;48.956;9.154;2022-07-15T05:43:34;8.07;;;2.20;;
7076;SDS011;3579;48.956;9.154;2022-07-15T05:46:00;5.83;;;2.60;;
7076;SDS011;3579;48.956;9.154;2022-07-15T05:48:27;5.00;;;2.20;;
7076;SDS011;3579;48.956;9.154;2022-07-15T05:50:53;4.50;;;2.30;;
7076;SDS011;3579;48.956;9.154;2022-07-15T05:53:19;4.97;;;2.40;;
7076;SDS011;3579;48.956;9.154;2022-07-15T05:55:45;4.47;;;2.40;;
7076;SDS011;3579;48.956;9.154;2022-07-15T05:58:11;3.60;;;2.40;;
7076;SDS011;3579;48.956;9.154;2022-07-15T06:00:38;4.73;;;2.50;;
7076;SDS011;3579;48.956;9.154;2022-07-15T06:03:04;3.90;;;2.20;;
7076;SDS011;3579;48.956;9.154;2022-07-15T06:05:31;4.77;;;2.30;;
7076;SDS011;3579;48.956;9.154;2022-07-15T06:07:57;4.70;;;2.47;;
7076;SDS011;3579;48.956;9.154;2022-07-15T06:10:24;3.57;;;2.50;;
7076;SDS011;3579;48.956;9.154;2022-07-15T06:12:50;4.43;;;2.20;;
7076;SDS011;3579;48.956;9.154;2022-07-15T06:15:18;3.87;;;2.40;;
7076;SDS011;3579;48.956;9.154;2022-07-15T06:17:45;5.83;;;2.63;;
7076;SDS011;3579;48.956;9.154;2022-07-15T06:20:11;4.53;;;2.30;;
7076;SDS011;3579;48.956;9.154;2022-07-15T06:22:38;6.43;;;2.07;;
7076;SDS011;3579;48.956;9.154;2022-07-15T06:25:04;5.10;;;2.53;;
7076;SDS011;3579;48.956;9.154;2022-07-15T06:27:30;5.77;;;2.57;;
7076;SDS011;3579;48.956;9.154;2022-07-15T06:29:57;4.33;;;2.07;;
7076;SDS011;3579;48.956;9.154;2022-07-15T06:32:23;8.43;;;2.40;;
7076;SDS011;3579;48.956;9.154;2022-07-15T06:34:49;5.33;;;3.00;;
7076;SDS011;3579;48.956;9.154;2022-07-15T06:37:15;6.43;;;2.43;;
7076;SDS011;3579;48.956;9.154;2022-07-15T06:39:42;8.13;;;2.53;;
7076;SDS011;3579;48.956;9.154;2022-07-15T06:42:09;7.43;;;2.37;;
7076;SDS011;3579;48.956;9.154;2022-07-15T06:44:35;8.40;;;2.33;;
7076;SDS011;3579;48.956;9.154;2022-07-15T06:47:01;4.67;;;2.50;;
7076;SDS011;3579;48.956;9.154;2022-07-15T06:49:29;4.80;;;2.47;;
7076;SDS011;3579;48.956;9.154;2022-07-15T06:51:55;5.43;;;2.40;;
7076;SDS011;3579;48.956;9.154;2022-07-15T06:54:21;3.47;;;2.20;;
7076;SDS011;3579;48.956;9.154;2022-07-15T06:56:47;8.30;;;2.37;;
7076;SDS011;3579;48.956;9.154;2022-07-15T06:59:13;10.17;;;2.27;;
7076;SDS011;3579;48.956;9.154;2022-07-15T07:01:39;6.83;;;2.17;;
7076;SDS011;3579;48.956;9.154;2022-07-15T07:04:06;8.30;;;2.47;;
7076;SDS011;3579;48.956;9.154;2022-07-15T07:06:32;10.57;;;2.10;;
7076;SDS011;3579;48.956;9.154;2022-07-15T07:09:01;5.83;;;2.40;;
7076;SDS011;3579;48.956;9.154;2022-07-15T07:11:33;6.03;;;2.30;;
7076;SDS011;3579;48.956;9.154;2022-07-15T07:13:59;9.23;;;2.07;;
7076;SDS011;3579;48.956;9.154;2022-07-15T07:16:26;3.70;;;2.10;;
7076;SDS011;3579;48.956;9.154;2022-07-15T07:18:52;9.80;;;2.50;;
7076;SDS011;3579;48.956;9.154;2022-07-15T07:21:19;6.87;;;2.20;;
7076;SDS011;3579;48.956;9.154;2022-07-15T07:23:46;7.37;;;2.20;;
7076;SDS011;3579;48.956;9.154;2022-07-15T07:26:12;13.00;;;2.37;;
7076;SDS011;3579;48.956;9.154;2022-07-15T07:28:39;6.77;;;2.33;;
7076;SDS011;3579;48.956;9.154;2022-07-15T07:31:07;12.00;;;2.10;;
7076;SDS011;3579;48.956;9.154;2022-07-15T07:33:34;7.50;;;2.20;;
7076;SDS011;3579;48.956;9.154;2022-07-15T07:36:00;7.10;;;2.70;;
7076;SDS011;3579;48.956;9.154;2022-07-15T07:38:29;8.20;;;2.43;;
7076;SDS011;3579;48.956;9.154;2022-07-15T07:40:55;6.97;;;2.30;;
7076;SDS011;3579;48.956;9.154;2022-07-15T07:43:21;9.33;;;2.17;;
7076;SDS011;3579;48.956;9.154;2022-07-15T07:45:47;8.73;;;2.20;;
7076;SDS011;3579;48.956;9.154;2022-07-15T07:48:13;8.57;;;2.50;;
7076;SDS011;3579;48.956;9.154;2022-07-15T07:50:40;6.00;;;2.10;;
7076;SDS011;3579;48.956;9.154;2022-07-15T07:53:07;5.73;;;2.50;;
7076;SDS011;3579;48.956;9.154;2022-07-15T07:55:33;10.27;;;2.50;;
7076;SDS011;3579;48.956;9.154;2022-07-15T07:57:59;6.60;;;1.90;;
7076;SDS011;3579;48.956;9.154;2022-07-15T08:00:28;5.60;;;2.40;;
7076;SDS011;3579;48.956;9.154;2022-07-15T08:02:58;4.27;;;1.90;;
7076;SDS011;3579;48.956;9.154;2022-07-15T08:05:25;6.53;;;2.03;;
7076;SDS011;3579;48.956;9.154;2022-07-15T08:08:06;6.03;;;2.40;;
7076;SDS011;3579;48.956;9.154;2022-07-15T08:10:32;5.43;;;2.53;;
7076;SDS011;3579;48.956;9.154;2022-07-15T08:12:58;4.80;;;2.10;;
7076;SDS011;3579;48.956;9.154;2022-07-15T08:15:26;4.83;;;2.00;;
7076;SDS011;3579;48.956;9.154;2022-07-15T08:17:52;5.40;;;2.00;;
7076;SDS011;3579;48.956;9.154;2022-07-15T08:20:18;7.20;;;2.30;;
7076;SDS011;3579;48.956;9.154;2022-07-15T08:22:44;7.50;;;2.10;;
7076;SDS011;3579;48.956;9.154;2022-07-15T08:25:10;10.13;;;2.33;;
7076;SDS011;3579;48.956;9.154;2022-07-15T08:27:36;6.57;;;1.90;;
7076;SDS011;3579;48.956;9.154;2022-07-15T08:30:03;5.77;;;2.00;;
7076;SDS011;3579;48.956;9.154;2022-07-15T08:32:30;3.33;;;1.90;;
7076;SDS011;3579;48.956;9.154;2022-07-15T08:34:56;5.43;;;2.00;;
7076;SDS011;3579;48.956;9.154;2022-07-15T08:37:24;6.60;;;2.10;;
7076;SDS011;3579;48.956;9.154;2022-07-15T08:39:50;4.33;;;2.00;;
7076;SDS011;3579;48.956;9.154;2022-07-15T08:42:17;5.10;;;1.70;;
7076;SDS011;3579;48.956;9.154;2022-07-15T08:44:44;4.90;;;2.10;;
7076;SDS011;3579;48.956;9.154;2022-07-15T08:47:10;6.10;;;2.27;;
7076;SDS011;3579;48.956;9.154;2022-07-15T08:49:36;3.93;;;2.20;;
7076;SDS011;3579;48.956;9.154;2022-07-15T08:52:05;4.07;;;2.00;;
7076;SDS011;3579;48.956;9.154;2022-07-15T08:54:32;5.93;;;2.10;;
7076;SDS011;3579;48.956;9.154;2022-07-15T08:56:58;5.60;;;2.00;;
7076;SDS011;3579;48.956;9.154;2022-07-15T08:59:25;4.03;;;1.80;;
7076;SDS011;3579;48.956;9.154;2022-07-15T09:01:51;6.10;;;2.23;;
7076;SDS011;3579;48.956;9.154;2022-07-15T09:04:19;3.73;;;2.10;;
7076;SDS011;3579;48.956;9.154;2022-07-15T09:06:45;5.97;;;1.97;;
7076;SDS011;3579;48.956;9.154;2022-07-15T09:12:02;3.60;;;1.93;;
7076;SDS011;3579;48.956;9.154;2022-07-15T09:14:29;3.73;;;2.07;;
7076;SDS011;3579;48.956;9.154;2022-07-15T09:17:04;3.93;;;2.10;;
7076;SDS011;3579;48.956;9.154;2022-07-15T09:22:25;5.10;;;1.93;;
7076;SDS011;3579;48.956;9.154;2022-07-15T09:25:09;7.20;;;2.27;;
7076;SDS011;3579;48.956;9.154;2022-07-15T09:27:40;4.93;;;2.10;;
7076;SDS011;3579;48.956;9.154;2022-07-15T09:32:59;5.03;;;2.23;;
7076;SDS011;3579;48.956;9.154;2022-07-15T09:35:45;3.47;;;2.10;;
7076;SDS011;3579;48.956;9.154;2022-07-15T09:38:30;6.80;;;2.10;;
7076;SDS011;3579;48.956;9.154;2022-07-15T09:41:00;5.13;;;2.10;;
7076;SDS011;3579;48.956;9.154;2022-07-15T09:43:27;3.30;;;1.93;;
7076;SDS011;3579;48.956;9.154;2022-07-15T09:48:19;2.40;;;1.83;;
7076;SDS011;3579;48.956;9.154;2022-07-15T09:50:46;3.53;;;1.90;;
7076;SDS011;3579;48.956;9.154;2022-07-15T09:53:13;4.10;;;2.10;;
7076;SDS011;3579;48.956;9.154;2022-07-15T09:55:40;4.37;;;2.10;;
7076;SDS011;3579;48.956;9.154;2022-07-15T09:58:13;3.20;;;1.90;;
7076;SDS011;3579;48.956;9.154;2022-07-15T10:00:40;5.67;;;2.20;;
7076;SDS011;3579;48.956;9.154;2022-07-15T10:03:06;6.43;;;2.53;;
7076;SDS011;3579;48.956;9.154;2022-07-15T10:05:32;5.67;;;2.40;;
7076;SDS011;3579;48.956;9.154;2022-07-15T10:08:09;8.07;;;2.30;;
7076;SDS011;3579;48.956;9.154;2022-07-15T10:10:35;5.27;;;2.33;;
7076;SDS011;3579;48.956;9.154;2022-07-15T10:13:16;6.57;;;2.30;;
7076;SDS011;3579;48.956;9.154;2022-07-15T10:18:51;3.53;;;2.10;;
7076;SDS011;3579;48.956;9.154;2022-07-15T10:29:45;6.27;;;2.37;;
7076;SDS011;3579;48.956;9.154;2022-07-15T10:32:11;4.37;;;2.27;;
7076;SDS011;3579;48.956;9.154;2022-07-15T10:34:38;8.10;;;2.30;;
7076;SDS011;3579;48.956;9.154;2022-07-15T10:37:05;6.47;;;2.50;;
7076;SDS011;3579;48.956;9.154;2022-07-15T10:45:24;5.50;;;2.37;;
7076;SDS011;3579;48.956;9.154;2022-07-15T10:48:06;5.30;;;1.80;;
7076;SDS011;3579;48.956;9.154;2022-07-15T10:50:53;2.57;;;2.10;;
7076;SDS011;3579;48.956;9.154;2022-07-15T10:53:20;5.07;;;2.27;;
7076;SDS011;3579;48.956;9.154;2022-07-15T10:55:48;4.17;;;2.10;;
7076;SDS011;3579;48.956;9.154;2022-07-15T10:58:15;3.60;;;1.90;;
7076;SDS011;3579;48.956;9.154;2022-07-15T11:00:42;6.53;;;2.20;;
7076;SDS011;3579;48.956;9.154;2022-07-15T11:03:19;5.13;;;2.13;;
7076;SDS011;3579;48.956;9.154;2022-07-15T11:13:45;3.00;;;1.87;;
7076;SDS011;3579;48.956;9.154;2022-07-15T11:16:13;5.40;;;2.50;;
7076;SDS011;3579;48.956;9.154;2022-07-15T11:18:47;3.40;;;2.10;;
7076;SDS011;3579;48.956;9.154;2022-07-15T11:21:15;5.50;;;2.23;;
7076;SDS011;3579;48.956;9.154;2022-07-15T11:23:43;4.30;;;2.13;;
7076;SDS011;3579;48.956;9.154;2022-07-15T11:26:10;6.93;;;2.20;;
7076;SDS011;3579;48.956;9.154;2022-07-15T11:28:36;6.03;;;2.60;;
7076;SDS011;3579;48.956;9.154;2022-07-15T11:31:02;3.50;;;1.90;;
7076;SDS011;3579;48.956;9.154;2022-07-15T11:33:28;3.73;;;2.27;;
7076;SDS011;3579;48.956;9.154;2022-07-15T11:38:23;5.97;;;2.17;;
7076;SDS011;3579;48.956;9.154;2022-07-15T11:40:53;4.60;;;2.37;;
7076;SDS011;3579;48.956;9.154;2022-07-15T11:43:40;4.27;;;2.30;;
7076;SDS011;3579;48.956;9.154;2022-07-15T11:46:26;3.13;;;1.90;;
7076;SDS011;3579;48.956;9.154;2022-07-15T11:48:57;5.37;;;2.20;;
7076;SDS011;3579;48.956;9.154;2022-07-15T11:51:30;4.70;;;2.30;;
7076;SDS011;3579;48.956;9.154;2022-07-15T11:53:56;7.30;;;2.30;;
7076;SDS011;3579;48.956;9.154;2022-07-15T11:56:24;4.43;;;2.10;;
7076;SDS011;3579;48.956;9.154;2022-07-15T11:58:51;4.53;;;2.13;;
7076;SDS011;3579;48.956;9.154;2022-07-15T12:01:20;3.97;;;2.10;;
7076;SDS011;3579;48.956;9.154;2022-07-15T12:03:49;3.27;;;2.00;;
7076;SDS011;3579;48.956;9.154;2022-07-15T12:06:20;3.07;;;2.13;;
7076;SDS011;3579;48.956;9.154;2022-07-15T12:08:59;6.40;;;2.10;;
7076;SDS011;3579;48.956;9.154;2022-07-15T12:11:37;4.93;;;2.00;;
7076;SDS011;3579;48.956;9.154;2022-07-15T12:14:08;4.90;;;2.23;;
7076;SDS011;3579;48.956;9.154;2022-07-15T12:19:09;5.33;;;2.23;;
7076;SDS011;3579;48.956;9.154;2022-07-15T12:21:38;4.70;;;2.10;;
7076;SDS011;3579;48.956;9.154;2022-07-15T12:26:35;7.40;;;2.30;;
7076;SDS011;3579;48.956;9.154;2022-07-15T12:29:04;5.30;;;2.50;;
7076;SDS011;3579;48.956;9.154;2022-07-15T12:31:32;3.00;;;1.90;;
7076;SDS011;3579;48.956;9.154;2022-07-15T12:33:59;3.67;;;2.10;;
7076;SDS011;3579;48.956;9.154;2022-07-15T12:36:29;5.57;;;2.50;;
7076;SDS011;3579;48.956;9.154;2022-07-15T12:39:12;6.13;;;2.73;;
7076;SDS011;3579;48.956;9.154;2022-07-15T12:41:42;5.17;;;2.30;;
7076;SDS011;3579;48.956;9.154;2022-07-15T12:44:10;7.47;;;2.10;;
7076;SDS011;3579;48.956;9.154;2022-07-15T12:54:49;3.70;;;1.80;;
7076;SDS011;3579;48.956;9.154;2022-07-15T13:00:10;4.43;;;2.30;;
7076;SDS011;3579;48.956;9.154;2022-07-15T13:05:26;4.67;;;2.27;;
7076;SDS011;3579;48.956;9.154;2022-07-15T13:08:14;4.23;;;2.27;;
7076;SDS011;3579;48.956;9.154;2022-07-15T13:10:43;4.13;;;2.13;;
7076;SDS011;3579;48.956;9.154;2022-07-15T13:13:10;4.93;;;2.30;;
7076;SDS011;3579;48.956;9.154;2022-07-15T13:15:39;3.60;;;2.10;;
7076;SDS011;3579;48.956;9.154;2022-07-15T13:18:05;4.43;;;2.10;;
7076;SDS011;3579;48.956;9.154;2022-07-15T13:20:32;3.33;;;2.00;;
7076;SDS011;3579;48.956;9.154;2022-07-15T13:22:58;2.93;;;2.07;;
7076;SDS011;3579;48.956;9.154;2022-07-15T13:25:25;5.57;;;2.20;;
7076;SDS011;3579;48.956;9.154;2022-07-15T13:27:51;3.73;;;2.10;;
7076;SDS011;3579;48.956;9.154;2022-07-15T13:30:18;4.50;;;2.10;;
7076;SDS011;3579;48.956;9.154;2022-07-15T13:32:44;6.00;;;2.20;;
7076;SDS011;3579;48.956;9.154;2022-07-15T13:35:11;2.87;;;1.90;;
7076;SDS011;3579;48.956;9.154;2022-07-15T13:37:38;3.93;;;1.90;;
7076;SDS011;3579;48.956;9.154;2022-07-15T13:40:06;2.97;;;2.27;;
7076;SDS011;3579;48.956;9.154;2022-07-15T13:42:33;3.10;;;2.20;;
7076;SDS011;3579;48.956;9.154;2022-07-15T13:45:00;5.80;;;2.20;;
7076;SDS011;3579;48.956;9.154;2022-07-15T13:47:26;4.33;;;2.30;;
7076;SDS011;3579;48.956;9.154;2022-07-15T13:49:52;7.43;;;2.20;;
7076;SDS011;3579;48.956;9.154;2022-07-15T13:52:43;5.03;;;2.57;;
7076;SDS011;3579;48.956;9.154;2022-07-15T13:55:11;4.40;;;1.90;;
7076;SDS011;3579;48.956;9.154;2022-07-15T13:57:37;4.43;;;2.00;;
7076;SDS011;3579;48.956;9.154;2022-07-15T14:00:04;3.40;;;2.10;;
7076;SDS011;3579;48.956;9.154;2022-07-15T14:02:32;4.20;;;1.97;;
7076;SDS011;3579;48.956;9.154;2022-07-15T14:04:58;3.23;;;2.17;;
7076;SDS011;3579;48.956;9.154;2022-07-15T14:07:24;4.77;;;2.07;;
7076;SDS011;3579;48.956;9.154;2022-07-15T14:09:49;4.50;;;2.10;;
7076;SDS011;3579;48.956;9.154;2022-07-15T14:12:16;5.73;;;2.30;;
7076;SDS011;3579;48.956;9.154;2022-07-15T14:14:41;5.10;;;2.20;;
7076;SDS011;3579;48.956;9.154;2022-07-15T14:17:07;3.40;;;2.10;;
7076;SDS011;3579;48.956;9.154;2022-07-15T14:19:33;4.90;;;2.07;;
7076;SDS011;3579;48.956;9.154;2022-07-15T14:21:59;2.80;;;2.17;;
7076;SDS011;3579;48.956;9.154;2022-07-15T14:24:25;4.63;;;2.50;;
7076;SDS011;3579;48.956;9.154;2022-07-15T14:26:51;6.20;;;2.57;;
7076;SDS011;3579;48.956;9.154;2022-07-15T14:29:18;2.83;;;2.10;;
7076;SDS011;3579;48.956;9.154;2022-07-15T14:31:44;5.50;;;2.10;;
7076;SDS011;3579;48.956;9.154;2022-07-15T14:34:10;3.07;;;2.00;;
7076;SDS011;3579;48.956;9.154;2022-07-15T14:36:36;4.50;;;2.20;;
7076;SDS011;3579;48.956;9.154;2022-07-15T14:39:03;4.53;;;2.00;;
7076;SDS011;3579;48.956;9.154;2022-07-15T14:41:30;3.10;;;2.17;;
7076;SDS011;3579;48.956;9.154;2022-07-15T14:43:56;2.37;;;1.93;;
7076;SDS011;3579;48.956;9.154;2022-07-15T14:46:22;4.90;;;2.07;;
7076;SDS011;3579;48.956;9.154;2022-07-15T14:48:48;5.30;;;2.03;;
7076;SDS011;3579;48.956;9.154;2022-07-15T14:51:14;5.13;;;2.03;;
7076;SDS011;3579;48.956;9.154;2022-07-15T14:53:40;2.67;;;2.20;;
7076;SDS011;3579;48.956;9.154;2022-07-15T14:56:06;3.97;;;1.80;;
7076;SDS011;3579;48.956;9.154;2022-07-15T14:58:32;4.23;;;1.97;;
7076;SDS011;3579;48.956;9.154;2022-07-15T15:00:58;3.97;;;2.13;;
7076;SDS011;3579;48.956;9.154;2022-07-15T15:03:24;3.13;;;2.23;;
7076;SDS011;3579;48.956;9.154;2022-07-15T15:05:50;3.67;;;2.20;;
7076;SDS011;3579;48.956;9.154;2022-07-15T15:08:16;4.57;;;2.10;;
7076;SDS011;3579;48.956;9.154;2022-07-15T15:10:42;3.43;;;2.00;;
7076;SDS011;3579;48.956;9.154;2022-07-15T15:13:08;4.70;;;2.10;;
7076;SDS011;3579;48.956;9.154;2022-07-15T15:15:34;2.77;;;2.17;;
7076;SDS011;3579;48.956;9.154;2022-07-15T15:18:01;3.30;;;1.87;;
7076;SDS011;3579;48.956;9.154;2022-07-15T15:20:27;3.33;;;2.10;;
7076;SDS011;3579;48.956;9.154;2022-07-15T15:22:54;3.70;;;1.93;;
7076;SDS011;3579;48.956;9.154;2022-07-15T15:25:20;3.90;;;2.20;;
7076;SDS011;3579;48.956;9.154;2022-07-15T15:28:04;2.73;;;2.13;;
7076;SDS011;3579;48.956;9.154;2022-07-15T15:30:31;4.10;;;2.03;;
7076;SDS011;3579;48.956;9.154;2022-07-15T15:32:57;6.00;;;2.43;;
7076;SDS011;3579;48.956;9.154;2022-07-15T15:35:23;3.17;;;2.20;;
7076;SDS011;3579;48.956;9.154;2022-07-15T15:37:49;3.37;;;1.97;;
7076;SDS011;3579;48.956;9.154;2022-07-15T15:40:15;3.17;;;2.07;;
7076;SDS011;3579;48.956;9.154;2022-07-15T15:42:42;3.57;;;2.17;;
7076;SDS011;3579;48.956;9.154;2022-07-15T15:45:08;2.87;;;1.90;;
7076;SDS011;3579;48.956;9.154;2022-07-15T15:47:34;2.77;;;1.90;;
7076;SDS011;3579;48.956;9.154;2022-07-15T15:50:00;3.17;;;1.90;;
7076;SDS011;3579;48.956;9.154;2022-07-15T15:52:26;4.47;;;2.07;;
7076;SDS011;3579;48.956;9.154;2022-07-15T15:54:52;2.53;;;1.80;;
7076;SDS011;3579;48.956;9.154;2022-07-15T15:57:18;2.90;;;1.93;;
7076;SDS011;3579;48.956;9.154;2022-07-15T15:59:44;3.40;;;2.10;;
7076;SDS011;3579;48.956;9.154;2022-07-15T16:02:10;2.13;;;1.90;;
7076;SDS011;3579;48.956;9.154;2022-07-15T16:04:37;4.03;;;1.87;;
7076;SDS011;3579;48.956;9.154;2022-07-15T16:07:03;4.80;;;2.10;;
7076;SDS011;3579;48.956;9.154;2022-07-15T16:09:29;2.77;;;1.93;;
7076;SDS011;3579;48.956;9.154;2022-07-15T16:11:55;3.27;;;2.07;;
7076;SDS011;3579;48.956;9.154;2022-07-15T16:14:21;4.00;;;1.90;;
7076;SDS011;3579;48.956;9.154;2022-07-15T16:16:47;3.17;;;1.90;;